createdAt,value
2022-09-28T00:02:26.783Z,89.93
2022-09-28T00:05:19.424Z,89.51
2022-09-28T00:08:11.560Z,89.56
2022-09-28T00:11:05.016Z,89.63
2022-09-28T00:14:03.701Z,89.65
2022-09-28T00:16:56.257Z,89.60
2022-09-28T00:19:48.541Z,89.46
2022-09-28T00:22:46.475Z,89.54
2022-09-28T00:25:38.863Z,89.70
2022-09-28T00:28:11.816Z,89.90
2022-09-28T00:31:04.190Z,89.93
2022-09-28T00:33:57.969Z,89.95
2022-09-28T00:36:51.031Z,90.28
2022-09-28T00:39:44.262Z,90.25
2022-09-28T00:42:29.390Z,90.21
2022-09-28T00:45:22.874Z,90.16
2022-09-28T00:48:15.143Z,90.29
2022-09-28T00:51:13.844Z,90.22
2022-09-28T00:54:08.767Z,90.12
2022-09-28T00:57:02.337Z,90.16
2022-09-28T00:59:47.893Z,90.09
2022-09-28T01:02:40.802Z,89.92
2022-09-28T01:05:33.989Z,90.01
2022-09-28T01:08:28.535Z,90.24
2022-09-28T01:11:22.081Z,90.20
2022-09-28T01:14:18.169Z,90.04
2022-09-28T01:17:09.698Z,90.16
2022-09-28T01:20:28.766Z,90.38
2022-09-28T01:23:47.169Z,90.31
2022-09-28T01:27:12.882Z,90.23
2022-09-28T01:30:08.989Z,89.85
2022-09-28T01:33:08.844Z,89.81
2022-09-28T01:35:54.100Z,89.76
2022-09-28T01:38:49.234Z,89.59
2022-09-28T01:41:44.951Z,89.67
2022-09-28T01:44:46.237Z,89.76
2022-09-28T01:47:41.770Z,89.74
2022-09-28T01:50:39.967Z,89.78
2022-09-28T01:53:40.498Z,89.98
2022-09-28T01:56:40.940Z,90.09
2022-09-28T01:59:38.110Z,90.39
2022-09-28T02:02:39.368Z,90.34
2022-09-28T02:05:38.217Z,90.33
2022-09-28T02:08:34.552Z,90.58
2022-09-28T02:11:26.758Z,90.28
2022-09-28T02:14:21.808Z,89.74
2022-09-28T02:17:16.220Z,90.06
2022-09-28T02:20:10.033Z,90.10
2022-09-28T02:23:03.157Z,90.10
2022-09-28T02:25:49.900Z,90.04
2022-09-28T02:28:33.090Z,89.89
2022-09-28T02:31:25.233Z,89.46
2022-09-28T02:34:17.434Z,89.10
2022-09-28T02:37:09.830Z,88.87
2022-09-28T02:40:02.051Z,88.96
2022-09-28T02:43:03.210Z,88.49
2022-09-28T02:46:03.241Z,88.50
2022-09-28T02:49:21.346Z,88.90
2022-09-28T02:52:43.071Z,89.08
2022-09-28T02:55:50.223Z,88.83
2022-09-28T02:58:51.981Z,88.71
2022-09-28T03:01:54.124Z,88.46
2022-09-28T03:04:52.667Z,88.44
2022-09-28T03:07:53.358Z,88.02
2022-09-28T03:10:50.108Z,88.22
2022-09-28T03:13:42.985Z,88.27
2022-09-28T03:16:35.162Z,88.20
2022-09-28T03:19:32.526Z,88.12
2022-09-28T03:22:25.853Z,88.02
2022-09-28T03:25:17.874Z,87.93
2022-09-28T03:28:12.736Z,87.55
2022-09-28T03:31:04.876Z,87.49
2022-09-28T03:33:56.963Z,87.47
2022-09-28T03:36:49.003Z,87.33
2022-09-28T03:39:40.971Z,87.07
2022-09-28T03:42:33.039Z,86.71
2022-09-28T03:45:25.155Z,86.85
2022-09-28T03:48:20.556Z,86.99
2022-09-28T03:51:15.664Z,87.27
2022-09-28T03:54:08.042Z,87.11
2022-09-28T03:57:00.138Z,87.06
2022-09-28T03:59:52.252Z,87.05
2022-09-28T04:02:46.530Z,86.94
2022-09-28T04:05:28.349Z,86.62
2022-09-28T04:08:20.552Z,86.54
2022-09-28T04:11:12.816Z,86.19
2022-09-28T04:13:57.855Z,86.33
2022-09-28T04:16:52.285Z,86.54
2022-09-28T04:19:47.515Z,86.70
2022-09-28T04:22:51.365Z,86.70
2022-09-28T04:25:46.083Z,86.85
2022-09-28T04:28:55.394Z,86.69
2022-09-28T04:31:49.759Z,86.82
2022-09-28T04:34:29.808Z,87.06
2022-09-28T04:37:23.941Z,87.01
2022-09-28T04:40:16.194Z,87.08
2022-09-28T04:43:09.026Z,87.07
2022-09-28T04:46:02.869Z,87.19
2022-09-28T04:48:54.871Z,87.24
2022-09-28T04:52:05.294Z,87.26
2022-09-28T04:54:57.254Z,87.27
2022-09-28T04:57:49.495Z,87.37
2022-09-28T05:00:41.607Z,87.28
2022-09-28T05:03:39.833Z,87.34
2022-09-28T05:06:40.561Z,87.29
2022-09-28T05:09:37.685Z,87.09
2022-09-28T05:12:30.513Z,86.80
2022-09-28T05:15:22.505Z,86.59
2022-09-28T05:18:14.449Z,86.69
2022-09-28T05:21:16.490Z,86.68
2022-09-28T05:24:08.870Z,86.52
2022-09-28T05:27:00.948Z,86.48
2022-09-28T05:29:53.056Z,86.54
2022-09-28T05:32:44.254Z,86.60
2022-09-28T05:35:36.256Z,85.93
2022-09-28T05:38:28.490Z,85.73
2022-09-28T05:41:12.144Z,85.89
2022-09-28T05:44:04.679Z,86.02
2022-09-28T05:46:54.191Z,85.55
2022-09-28T05:49:36.227Z,85.78
2022-09-28T05:52:28.344Z,84.76
2022-09-28T05:55:20.421Z,84.44
2022-09-28T05:58:12.779Z,83.55
2022-09-28T06:01:04.762Z,83.47
2022-09-28T06:03:56.748Z,83.09
2022-09-28T06:06:41.278Z,82.84
2022-09-28T06:09:33.322Z,83.14
2022-09-28T06:12:25.798Z,82.57
2022-09-28T06:15:18.473Z,82.12
2022-09-28T06:18:14.231Z,81.24
2022-09-28T06:21:08.334Z,81.09
2022-09-28T06:24:00.286Z,81.22
2022-09-28T06:26:52.327Z,81.09
2022-09-28T06:29:44.300Z,80.61
2022-09-28T06:32:36.354Z,80.43
2022-09-28T06:35:30.376Z,80.17
2022-09-28T06:38:22.340Z,80.44
2022-09-28T06:41:14.841Z,80.86
2022-09-28T06:43:57.137Z,81.04
2022-09-28T06:46:47.267Z,80.51
2022-09-28T06:49:41.967Z,79.95
2022-09-28T06:52:39.619Z,79.91
2022-09-28T06:55:31.766Z,78.99
2022-09-28T06:58:24.193Z,79.03
2022-09-28T07:01:16.257Z,78.14
2022-09-28T07:04:08.361Z,76.95
2022-09-28T07:06:59.185Z,77.53
2022-09-28T07:10:13.007Z,78.38
2022-09-28T07:13:10.494Z,78.60
2022-09-28T07:15:57.047Z,79.36
2022-09-28T07:18:42.328Z,78.61
2022-09-28T07:21:34.775Z,78.79
2022-09-28T07:24:19.957Z,78.56
2022-09-28T07:27:23.433Z,77.71
2022-09-28T07:30:09.313Z,78.49
2022-09-28T07:32:59.353Z,78.78
2022-09-28T07:35:55.742Z,77.55
2022-09-28T07:38:47.694Z,74.52
2022-09-28T07:41:39.976Z,74.53
2022-09-28T07:44:32.167Z,74.03
2022-09-28T07:47:30.814Z,73.35
2022-09-28T07:50:34.843Z,72.67
2022-09-28T07:53:36.065Z,71.75
2022-09-28T07:56:28.087Z,70.82
2022-09-28T07:59:23.035Z,69.00
2022-09-28T08:02:20.344Z,69.39
2022-09-28T08:05:12.546Z,70.47
2022-09-28T08:08:06.971Z,69.39
2022-09-28T08:10:53.708Z,70.52
2022-09-28T08:13:48.882Z,67.56
2022-09-28T08:16:40.920Z,68.43
2022-09-28T08:19:51.227Z,67.81
2022-09-28T08:22:43.177Z,68.41
2022-09-28T08:25:38.371Z,66.23
2022-09-28T08:28:30.462Z,66.54
2022-09-28T08:31:07.816Z,65.48
2022-09-28T08:34:14.878Z,65.21
2022-09-28T08:37:22.083Z,65.51
2022-09-28T08:40:29.046Z,65.30
2022-09-28T08:43:43.759Z,64.83
2022-09-28T08:46:43.466Z,65.02
2022-09-28T08:49:44.287Z,64.36
2022-09-28T08:52:44.128Z,64.46
2022-09-28T08:55:45.438Z,64.51
2022-09-28T08:58:42.574Z,65.65
2022-09-28T09:01:41.385Z,65.10
2022-09-28T09:04:35.140Z,65.80
2022-09-28T09:07:49.327Z,67.35
2022-09-28T09:10:51.277Z,67.44
2022-09-28T09:14:01.939Z,66.47
2022-09-28T09:17:03.258Z,64.50
2022-09-28T09:20:07.300Z,64.34
2022-09-28T09:23:05.756Z,61.91
2022-09-28T09:25:54.912Z,59.70
2022-09-28T09:29:06.981Z,57.98
2022-09-28T09:32:17.781Z,58.11
2022-09-28T09:35:31.508Z,58.58
2022-09-28T09:38:39.808Z,57.46
2022-09-28T09:41:43.647Z,57.52
2022-09-28T09:44:53.334Z,55.34
2022-09-28T09:48:01.145Z,56.10
2022-09-28T09:50:57.417Z,56.11
2022-09-28T09:53:51.006Z,58.12
2022-09-28T09:56:49.106Z,56.49
2022-09-28T09:59:45.948Z,55.85
2022-09-28T10:02:51.990Z,53.62
2022-09-28T10:05:49.489Z,55.42
2022-09-28T10:08:47.207Z,55.78
2022-09-28T10:11:44.118Z,55.16
2022-09-28T10:14:36.583Z,54.46
2022-09-28T10:17:28.596Z,54.98
2022-09-28T10:20:38.971Z,55.18
2022-09-28T10:23:37.226Z,54.98
2022-09-28T10:26:35.534Z,55.85
2022-09-28T10:29:35.973Z,56.86
2022-09-28T10:32:37.716Z,56.95
2022-09-28T10:35:41.811Z,56.08
2022-09-28T10:38:34.807Z,56.46
2022-09-28T10:41:33.317Z,55.67
2022-09-28T10:44:22.455Z,55.49
2022-09-28T10:47:26.164Z,55.66
2022-09-28T10:50:25.507Z,54.09
2022-09-28T10:53:23.571Z,53.61
2022-09-28T10:56:32.904Z,53.26
2022-09-28T10:59:40.270Z,52.80
2022-09-28T11:02:35.941Z,52.62
2022-09-28T11:05:30.056Z,52.33
2022-09-28T11:08:26.495Z,51.19
2022-09-28T11:11:20.535Z,50.06
2022-09-28T11:14:26.989Z,49.84
2022-09-28T11:17:26.476Z,48.38
2022-09-28T11:20:35.590Z,49.80
2022-09-28T11:23:32.224Z,49.50
2022-09-28T11:26:25.344Z,48.13
2022-09-28T11:29:36.000Z,46.76
2022-09-28T11:32:45.689Z,47.45
2022-09-28T11:36:06.543Z,46.35
2022-09-28T11:39:08.804Z,46.97
2022-09-28T11:42:25.053Z,47.34
2022-09-28T11:45:33.846Z,45.60
2022-09-28T11:48:31.564Z,46.90
2022-09-28T11:51:27.622Z,47.45
2022-09-28T11:54:28.993Z,47.20
2022-09-28T11:57:28.919Z,47.66
2022-09-28T12:00:23.354Z,46.14
2022-09-28T12:03:02.573Z,47.14
2022-09-28T12:06:01.262Z,47.24
2022-09-28T12:08:53.777Z,47.04
2022-09-28T12:11:45.213Z,47.89
2022-09-28T12:14:42.426Z,48.02
2022-09-28T12:17:23.433Z,46.68
2022-09-28T12:20:21.786Z,45.77
2022-09-28T12:23:03.789Z,45.46
2022-09-28T12:26:00.247Z,47.04
2022-09-28T12:28:56.756Z,45.57
2022-09-28T12:31:42.248Z,46.03
2022-09-28T12:34:34.598Z,47.30
2022-09-28T12:37:54.501Z,47.41
2022-09-28T12:40:56.407Z,46.56
2022-09-28T12:43:54.590Z,47.77
2022-09-28T12:46:57.484Z,48.02
2022-09-28T12:52:47.167Z,49.03
2022-09-28T12:56:01.275Z,48.86
2022-09-28T12:59:06.793Z,49.17
2022-09-28T13:02:20.542Z,48.94
2022-09-28T13:05:38.847Z,48.71
2022-09-28T13:08:41.017Z,48.73
2022-09-28T13:11:41.658Z,49.49
2022-09-28T13:15:09.934Z,49.73
2022-09-28T13:18:09.431Z,48.80
2022-09-28T13:21:24.064Z,49.83
2022-09-28T13:24:14.395Z,49.87
2022-09-28T13:27:17.322Z,49.75
2022-09-28T13:29:55.687Z,49.43
2022-09-28T13:32:51.732Z,49.93
2022-09-28T13:35:46.046Z,49.39
2022-09-28T13:38:53.025Z,48.91
2022-09-28T13:41:50.753Z,49.03
2022-09-28T13:45:03.872Z,48.40
2022-09-28T13:48:12.636Z,47.83
2022-09-28T13:51:17.081Z,48.75
2022-09-28T13:54:26.082Z,49.08
2022-09-28T13:57:26.105Z,48.83
2022-09-28T14:00:24.754Z,49.32
2022-09-28T14:03:28.844Z,50.13
2022-09-28T14:06:29.786Z,48.70
2022-09-28T14:09:43.775Z,48.65
2022-09-28T14:12:51.613Z,48.80
2022-09-28T14:15:48.105Z,48.64
2022-09-28T14:18:33.603Z,48.48
2022-09-28T14:21:36.239Z,48.13
2022-09-28T14:24:46.061Z,47.63
2022-09-28T14:28:05.009Z,47.57
2022-09-28T14:30:59.768Z,47.67
2022-09-28T14:34:00.135Z,47.71
2022-09-28T14:37:06.957Z,48.23
2022-09-28T14:40:01.548Z,49.38
2022-09-28T14:43:25.412Z,50.05
2022-09-28T14:46:40.569Z,49.83
2022-09-28T14:50:00.814Z,50.32
2022-09-28T14:52:48.087Z,49.51
2022-09-28T14:55:50.414Z,49.81
2022-09-28T14:58:33.712Z,50.26
2022-09-28T15:01:21.325Z,50.20
2022-09-28T15:04:15.878Z,50.66
2022-09-28T15:07:07.929Z,50.36
2022-09-28T15:10:02.775Z,51.15
2022-09-28T15:12:56.123Z,51.07
2022-09-28T15:15:42.373Z,51.62
2022-09-28T15:18:59.262Z,51.68
2022-09-28T15:21:52.474Z,51.80
2022-09-28T15:24:59.952Z,51.53
2022-09-28T15:27:56.529Z,51.79
2022-09-28T15:30:49.226Z,51.88
2022-09-28T15:34:01.588Z,52.35
2022-09-28T15:36:56.494Z,52.52
2022-09-28T15:39:48.766Z,52.86
2022-09-28T15:42:39.307Z,53.41
2022-09-28T15:45:36.758Z,53.77
2022-09-28T15:48:32.478Z,54.15
2022-09-28T15:51:15.920Z,54.76
2022-09-28T15:54:19.725Z,55.46
2022-09-28T15:57:33.400Z,56.04
2022-09-28T16:00:29.585Z,56.64
2022-09-28T16:03:20.271Z,57.28
2022-09-28T16:06:13.780Z,57.77
2022-09-28T16:08:49.541Z,58.29
2022-09-28T16:11:40.735Z,58.84
2022-09-28T16:14:31.489Z,59.11
2022-09-28T16:17:20.002Z,59.82
2022-09-28T16:19:54.582Z,60.26
2022-09-28T16:22:28.887Z,60.97
2022-09-28T16:25:03.143Z,61.08
2022-09-28T16:27:43.641Z,61.42
2022-09-28T16:30:36.489Z,61.95
2022-09-28T16:33:39.199Z,62.38
2022-09-28T16:36:27.501Z,62.83
2022-09-28T16:39:20.713Z,63.50
2022-09-28T16:42:14.556Z,63.71
2022-09-28T16:44:46.950Z,64.05
2022-09-28T16:47:40.589Z,64.03
2022-09-28T16:50:32.985Z,64.38
2022-09-28T16:53:43.205Z,64.04
2022-09-28T16:56:36.846Z,64.08
2022-09-28T16:59:13.891Z,64.04
2022-09-28T17:02:46.316Z,63.84
2022-09-28T17:05:31.759Z,63.56
2022-09-28T17:08:25.818Z,63.64
2022-09-28T17:11:24.274Z,63.35
2022-09-28T17:14:17.097Z,63.22
2022-09-28T17:17:12.665Z,63.01
2022-09-28T17:20:17.023Z,62.76
2022-09-28T17:23:09.359Z,62.85
2022-09-28T17:26:02.775Z,62.63
2022-09-28T17:28:46.011Z,62.55
2022-09-28T17:31:38.196Z,62.57
2022-09-28T17:34:30.369Z,62.75
2022-09-28T17:37:22.484Z,62.98
2022-09-28T17:40:22.146Z,63.09
2022-09-28T17:43:14.639Z,63.37
2022-09-28T17:46:26.249Z,63.58
2022-09-28T17:49:19.298Z,63.96
2022-09-28T17:52:11.266Z,64.09
2022-09-28T17:55:03.621Z,64.34
2022-09-28T17:57:48.784Z,64.67
2022-09-28T18:00:41.060Z,64.62
2022-09-28T18:03:33.324Z,64.68
2022-09-28T18:06:25.893Z,64.91
2022-09-28T18:09:25.129Z,64.96
2022-09-28T18:12:18.354Z,65.17
2022-09-28T18:15:12.957Z,65.44
2022-09-28T18:18:09.531Z,65.50
2022-09-28T18:21:02.876Z,65.64
2022-09-28T18:23:45.465Z,65.66
2022-09-28T18:26:28.331Z,65.63
2022-09-28T18:29:21.328Z,65.67
2022-09-28T18:32:14.277Z,65.70
2022-09-28T18:35:10.264Z,65.79
2022-09-28T18:38:05.406Z,65.97
2022-09-28T18:40:58.180Z,66.21
2022-09-28T18:43:45.057Z,66.57
2022-09-28T18:46:28.329Z,66.90
2022-09-28T18:49:21.238Z,67.27
2022-09-28T18:52:13.950Z,67.31
2022-09-28T18:55:07.894Z,67.71
2022-09-28T18:58:00.512Z,67.72
2022-09-28T19:00:53.828Z,67.80
2022-09-28T19:03:53.131Z,68.13
2022-09-28T19:06:47.606Z,68.13
2022-09-28T19:09:43.982Z,68.31
2022-09-28T19:12:36.394Z,68.58
2022-09-28T19:15:29.555Z,68.56
2022-09-28T19:18:22.441Z,68.81
2022-09-28T19:21:16.757Z,69.05
2022-09-28T19:24:07.824Z,69.15
2022-09-28T19:26:54.507Z,69.20
2022-09-28T19:29:46.512Z,69.05
2022-09-28T19:32:39.151Z,69.11
2022-09-28T19:35:31.243Z,68.95
2022-09-28T19:38:23.339Z,69.05
2022-09-28T19:41:39.406Z,68.92
2022-09-28T19:44:36.487Z,69.23
2022-09-28T19:47:28.819Z,69.56
2022-09-28T19:50:20.901Z,69.84
2022-09-28T19:53:12.868Z,70.08
2022-09-28T19:56:06.191Z,70.46
2022-09-28T19:58:58.317Z,70.62
2022-09-28T20:01:52.079Z,70.90
2022-09-28T20:04:44.149Z,71.48
2022-09-28T20:07:36.839Z,71.50
2022-09-28T20:10:28.846Z,71.57
2022-09-28T20:13:21.503Z,71.84
2022-09-28T20:16:15.536Z,72.00
2022-09-28T20:19:07.885Z,72.02
2022-09-28T20:22:03.287Z,72.01
2022-09-28T20:24:55.518Z,72.11
2022-09-28T20:27:47.507Z,72.24
2022-09-28T20:30:39.783Z,72.15
2022-09-28T20:33:33.768Z,72.19
2022-09-28T20:36:26.902Z,72.07
2022-09-28T20:39:19.099Z,72.16
2022-09-28T20:42:11.758Z,72.03
2022-09-28T20:45:03.941Z,71.93
2022-09-28T20:47:46.887Z,72.11
2022-09-28T20:50:38.939Z,72.04
2022-09-28T20:53:31.356Z,72.09
2022-09-28T20:56:25.003Z,72.14
2022-09-28T20:59:17.325Z,72.05
2022-09-28T21:01:59.367Z,71.99
2022-09-28T21:04:51.424Z,71.84
2022-09-28T21:07:43.505Z,71.68
2022-09-28T21:10:35.555Z,71.59
2022-09-28T21:13:28.528Z,71.60
2022-09-28T21:16:20.784Z,71.42
2022-09-28T21:19:12.753Z,71.47
2022-09-28T21:22:04.833Z,71.37
2022-09-28T21:24:56.568Z,71.56
2022-09-28T21:27:48.754Z,71.60
2022-09-28T21:30:41.583Z,71.63
2022-09-28T21:33:33.690Z,71.51
2022-09-28T21:36:26.348Z,71.57
2022-09-28T21:39:10.814Z,71.48
2022-09-28T21:42:03.866Z,71.38
2022-09-28T21:44:59.373Z,71.25
2022-09-28T21:47:53.958Z,71.18
2022-09-28T21:50:44.692Z,71.27
2022-09-28T21:53:38.588Z,71.30
2022-09-28T21:56:30.822Z,71.26
2022-09-28T21:59:22.893Z,71.42
2022-09-28T22:02:14.961Z,71.64
2022-09-28T22:05:08.472Z,71.59
2022-09-28T22:08:01.169Z,71.49
2022-09-28T22:11:01.946Z,71.51
2022-09-28T22:13:56.075Z,71.22
2022-09-28T22:16:48.059Z,71.13
2022-09-28T22:19:41.715Z,70.94
2022-09-28T22:22:33.763Z,70.93
2022-09-28T22:25:09.553Z,70.73
2022-09-28T22:27:54.418Z,70.58
2022-09-28T22:30:46.835Z,70.45
2022-09-28T22:33:39.733Z,70.41
2022-09-28T22:36:32.606Z,70.34
2022-09-28T22:39:24.567Z,70.33
2022-09-28T22:42:17.515Z,70.20
2022-09-28T22:45:10.358Z,70.16
2022-09-28T22:48:03.497Z,69.86
2022-09-28T22:50:55.499Z,69.88
2022-09-28T22:53:48.302Z,69.92
2022-09-28T22:56:40.263Z,69.61
2022-09-28T22:59:33.041Z,69.60
2022-09-28T23:02:14.905Z,69.60
2022-09-28T23:05:08.165Z,69.72
2022-09-28T23:08:00.219Z,69.61
2022-09-28T23:10:52.543Z,69.88
2022-09-28T23:13:26.681Z,69.82
2022-09-28T23:16:11.613Z,69.94
2022-09-28T23:19:03.762Z,70.02
2022-09-28T23:21:58.629Z,70.05
2022-09-28T23:24:50.616Z,70.09
2022-09-28T23:27:47.707Z,69.77
2022-09-28T23:30:42.230Z,69.55
2022-09-28T23:33:34.455Z,69.65
2022-09-28T23:36:26.712Z,69.42
2022-09-28T23:39:18.814Z,69.28
2022-09-28T23:42:10.921Z,69.29
2022-09-28T23:45:02.959Z,69.33
2022-09-28T23:47:54.959Z,69.50
2022-09-28T23:50:47.678Z,69.49
2022-09-28T23:53:39.769Z,69.56
2022-09-28T23:56:31.761Z,69.63
2022-09-28T23:59:23.854Z,69.67
